Holly Pond, Alabama
Current Conditions -  °F | °C
As of 9:55 AM on Friday 24 Oct 2014 (Local Time) from KCMD Reporting Station
Clear Clear  
Wind Chill: 14°   Ceiling: Unl
Heat Index: 14°   Visibility: 10mi
Dew Point:   Wind: 7mph
Humidity: 66%   Direction: 350°N
Pressure: 30.15"   Gusts: NA
Location:  34.17°N, 86.62°W
Report Text: KCMD 241455Z AUTO 35006KT 10SM CLR 14/08 A3015 RMK AO2 T01390076
Loading
Personal Weather Stations






























Interactive Weather Map
Tropical Storm Tracking
New forecast layout! Learn more

10-Day Weather Forecast

Advertisements
Track Severe Weather on mobile